Time;durP1;ratioP1;P1;durP2;ratioP2;P2;SDS_P1;SDS_P2;PMS_P1;PMS_P2;Temp;Humidity;BMP_temperature;BMP_pressure;BME280_temperature;BME280_humidity;BME280_pressure;Samples;Min_cycle;Max_cycle;Signal;HPM_P1;HPM_P2
2023/06/26 00:01:14;;;;;;;9.63;6.35;;;;;;;19.57;60.25;99598.16;4355121;32;20107;-91
2023/06/26 00:03:40;;;;;;;9.15;6.43;;;;;;;19.60;60.25;99599.72;4384950;32;25514;-90
2023/06/26 00:06:05;;;;;;;10.20;6.87;;;;;;;19.51;60.25;99597.72;4354071;32;20124;-91
2023/06/26 00:08:31;;;;;;;12.10;6.40;;;;;;;19.58;60.25;99601.62;4354234;32;20091;-91
2023/06/26 00:10:56;;;;;;;9.45;6.30;;;;;;;19.67;60.26;99600.16;4363930;32;20107;-90
2023/06/26 00:13:22;;;;;;;8.68;6.37;;;;;;;19.62;60.25;99590.75;4359723;32;20482;-91
2023/06/26 00:15:47;;;;;;;8.77;6.53;;;;;;;19.85;60.26;99590.88;4354991;32;20087;-91
2023/06/26 00:18:13;;;;;;;11.68;6.78;;;;;;;19.78;60.27;99592.28;4358474;32;20424;-90
2023/06/26 00:20:38;;;;;;;11.82;6.65;;;;;;;19.81;60.26;99600.00;4361541;32;20380;-92
2023/06/26 00:23:07;;;;;;;10.90;7.15;;;;;;;19.40;60.25;99595.00;4374640;32;20432;-91
2023/06/26 00:25:33;;;;;;;12.05;7.57;;;;;;;19.54;60.26;99587.81;4378939;32;20112;-91
2023/06/26 00:27:58;;;;;;;9.27;6.78;;;;;;;19.38;60.24;99588.97;4363978;32;20103;-92
2023/06/26 00:30:24;;;;;;;10.05;6.72;;;;;;;19.41;60.24;99588.78;4374525;32;20354;-92
2023/06/26 00:32:50;;;;;;;12.90;7.05;;;;;;;19.21;60.23;99592.81;4353117;32;20168;-92
2023/06/26 00:35:16;;;;;;;11.48;7.40;;;;;;;19.42;60.24;99593.12;4368942;32;20091;-92
2023/06/26 00:37:41;;;;;;;10.35;7.12;;;;;;;18.98;60.21;99600.53;4373631;32;20107;-90
2023/06/26 00:40:08;;;;;;;9.00;6.95;;;;;;;19.08;60.23;99605.16;4353234;32;20133;-88
2023/06/26 00:42:34;;;;;;;12.05;6.75;;;;;;;19.13;60.22;99603.91;4358969;32;20156;-91
2023/06/26 00:44:59;;;;;;;12.25;7.40;;;;;;;19.24;60.24;99608.44;4351284;32;20368;-91
2023/06/26 00:47:25;;;;;;;11.68;7.57;;;;;;;18.81;60.21;99606.13;4344755;32;20110;-91
2023/06/26 00:49:51;;;;;;;9.88;6.87;;;;;;;18.85;60.22;99602.31;4364554;32;20140;-91
2023/06/26 00:52:16;;;;;;;10.70;7.65;;;;;;;18.86;60.21;99603.16;4351433;32;20091;-90
2023/06/26 00:54:42;;;;;;;11.27;7.28;;;;;;;18.73;60.20;99599.69;4376801;32;20087;-91
2023/06/26 00:57:07;;;;;;;9.68;6.97;;;;;;;18.86;60.21;99597.87;4363821;32;20122;-90
2023/06/26 00:59:33;;;;;;;10.30;6.87;;;;;;;18.75;60.21;99595.16;4374268;32;20111;-90
2023/06/26 01:01:58;;;;;;;11.88;7.47;;;;;;;18.65;60.20;99601.03;4366660;32;20120;-90
2023/06/26 01:04:27;;;;;;;9.82;6.75;;;;;;;18.77;60.22;99594.09;4377573;32;20464;-89
2023/06/26 01:06:52;;;;;;;10.88;7.45;;;;;;;18.75;60.21;99590.72;4363462;32;20114;-90
2023/06/26 01:09:18;;;;;;;10.73;6.97;;;;;;;18.71;60.21;99591.88;4363323;32;20094;-92
2023/06/26 01:11:43;;;;;;;11.35;7.62;;;;;;;18.62;60.21;99580.16;4358979;32;20106;-91
2023/06/26 01:14:09;;;;;;;11.27;6.32;;;;;;;18.79;60.21;99586.06;4344108;32;20168;-89
2023/06/26 01:16:35;;;;;;;10.98;6.93;;;;;;;18.71;60.21;99581.34;4355552;32;20114;-91
2023/06/26 01:19:00;;;;;;;9.18;6.35;;;;;;;18.99;60.21;99575.00;4375379;32;20130;-91
2023/06/26 01:21:32;;;;;;;10.10;6.20;;;;;;;19.15;60.23;99570.31;4361060;32;20098;-91
2023/06/26 01:24:04;;;;;;;12.02;7.60;;;;;;;18.91;60.20;99575.50;4380405;32;20434;-91
2023/06/26 01:26:30;;;;;;;9.15;6.05;;;;;;;18.75;60.21;99571.44;4380326;32;20106;-91
2023/06/26 01:28:56;;;;;;;11.10;6.87;;;;;;;18.74;60.20;99567.94;4352868;32;20209;-90
2023/06/26 01:31:21;;;;;;;9.35;6.68;;;;;;;18.86;60.21;99564.44;4347126;32;20117;-90
2023/06/26 01:33:46;;;;;;;10.88;6.95;;;;;;;18.88;60.21;99565.19;4366554;32;20202;-89
2023/06/26 01:36:12;;;;;;;10.27;7.07;;;;;;;18.83;60.21;99563.81;4352722;32;20471;-90
2023/06/26 01:38:37;;;;;;;12.37;7.62;;;;;;;18.70;60.21;99572.59;4366229;32;20102;-92
2023/06/26 01:41:04;;;;;;;11.02;6.97;;;;;;;18.56;60.20;99567.37;4355271;32;20173;-92
2023/06/26 01:43:38;;;;;;;8.40;6.62;;;;;;;18.55;60.20;99564.84;4355523;32;20121;-91
2023/06/26 01:46:06;;;;;;;10.10;7.35;;;;;;;18.44;60.18;99564.69;4380111;32;20145;-91
2023/06/26 01:48:34;;;;;;;9.85;7.28;;;;;;;18.31;60.19;99565.53;4365204;32;20233;-91
2023/06/26 01:51:00;;;;;;;9.80;6.43;;;;;;;18.50;60.19;99566.94;4370644;32;20110;-92
2023/06/26 01:53:25;;;;;;;11.27;6.93;;;;;;;18.38;60.18;99560.69;4377190;32;20120;-91
2023/06/26 01:55:52;;;;;;;9.05;7.10;;;;;;;18.45;60.19;99571.66;4355078;32;20114;-90
2023/06/26 01:58:17;;;;;;;13.35;7.25;;;;;;;18.64;60.20;99572.13;4367877;32;20106;-90
2023/06/26 02:00:43;;;;;;;10.88;7.30;;;;;;;18.76;60.20;99566.03;4355242;32;20120;-91
2023/06/26 02:03:08;;;;;;;11.65;7.22;;;;;;;18.44;60.19;99565.53;4374469;32;20118;-89
2023/06/26 02:05:34;;;;;;;10.88;7.85;;;;;;;18.80;60.21;99564.88;4373430;32;20448;-91
2023/06/26 02:08:01;;;;;;;10.38;7.75;;;;;;;18.75;60.21;99564.34;4349524;32;187915;-90
2023/06/26 02:10:26;;;;;;;11.32;6.90;;;;;;;18.52;60.19;99562.41;4365955;32;20129;-90
2023/06/26 02:12:52;;;;;;;9.98;7.15;;;;;;;18.22;60.17;99568.78;4355316;32;20106;-91
2023/06/26 02:15:17;;;;;;;13.60;7.75;;;;;;;18.41;60.19;99561.31;4354981;32;20748;-90
2023/06/26 02:17:42;;;;;;;9.18;6.87;;;;;;;18.24;60.18;99566.91;4355145;32;20142;-90
2023/06/26 02:20:10;;;;;;;11.88;6.80;;;;;;;18.14;60.17;99557.91;4367751;32;20121;-90
2023/06/26 02:22:36;;;;;;;10.43;6.57;;;;;;;18.33;60.19;99563.62;4365763;32;20398;-91
2023/06/26 02:25:01;;;;;;;8.57;6.95;;;;;;;18.07;60.18;99562.72;4367662;32;20160;-89
2023/06/26 02:27:27;;;;;;;10.57;6.95;;;;;;;18.21;60.18;99569.72;4355529;32;20158;-89
2023/06/26 02:29:52;;;;;;;11.48;6.60;;;;;;;18.13;60.17;99579.06;4366477;32;20155;-89
2023/06/26 02:32:18;;;;;;;12.37;7.05;;;;;;;17.82;60.15;99578.44;4366462;32;20150;-89
2023/06/26 02:34:43;;;;;;;15.70;7.20;;;;;;;18.10;60.18;99583.59;4373377;32;20145;-89
2023/06/26 02:37:10;;;;;;;9.80;6.47;;;;;;;18.27;60.18;99584.28;4365354;32;20468;-88
2023/06/26 02:39:36;;;;;;;12.02;7.50;;;;;;;18.41;60.19;99582.41;4377212;32;20094;-90
2023/06/26 02:42:01;;;;;;;9.27;6.93;;;;;;;18.24;60.18;99581.87;4352345;32;20121;-90
2023/06/26 02:44:27;;;;;;;11.25;6.37;;;;;;;17.99;60.16;99580.84;4365220;32;20214;-90
2023/06/26 02:46:52;;;;;;;12.88;6.35;;;;;;;18.13;60.17;99582.56;4364977;32;20103;-90
2023/06/26 02:49:17;;;;;;;8.90;6.18;;;;;;;18.34;60.18;99581.13;4365094;32;20179;-90
2023/06/26 02:51:43;;;;;;;8.80;6.30;;;;;;;18.25;60.19;99584.41;4352805;32;20146;-91
2023/06/26 02:54:08;;;;;;;12.70;6.57;;;;;;;18.08;60.17;99582.84;4352643;32;20099;-89
2023/06/26 02:56:34;;;;;;;11.00;7.28;;;;;;;18.01;60.17;99588.63;4365230;32;20486;-92
2023/06/26 02:58:59;;;;;;;9.18;6.55;;;;;;;17.85;60.15;99587.94;4352888;32;20158;-92
2023/06/26 03:01:25;;;;;;;8.68;6.22;;;;;;;17.95;60.17;99589.84;4353075;32;20462;-92
2023/06/26 03:03:50;;;;;;;9.50;6.78;;;;;;;17.91;60.16;99584.91;4352850;32;20151;-92
2023/06/26 03:06:16;;;;;;;9.70;6.80;;;;;;;18.19;60.18;99586.56;4352856;32;20499;-93
2023/06/26 03:08:41;;;;;;;8.80;6.20;;;;;;;18.09;60.17;99587.19;4352829;32;20101;-92
2023/06/26 03:11:07;;;;;;;10.70;7.25;;;;;;;18.01;60.17;99591.28;4365033;32;20087;-90
2023/06/26 03:13:34;;;;;;;9.73;6.18;;;;;;;17.94;60.17;99582.91;4352593;32;20459;-90
2023/06/26 03:15:59;;;;;;;8.10;6.10;;;;;;;17.89;60.15;99590.25;4364938;32;20177;-89
2023/06/26 03:18:25;;;;;;;10.88;6.32;;;;;;;18.06;60.17;99599.72;4377553;32;20110;-92
2023/06/26 03:20:50;;;;;;;10.23;6.60;;;;;;;18.08;60.17;99593.41;4352941;32;20356;-94
2023/06/26 03:23:16;;;;;;;9.85;6.10;;;;;;;18.35;60.18;99596.00;4353165;32;20176;-92
2023/06/26 03:25:41;;;;;;;9.20;6.65;;;;;;;18.31;60.19;99606.84;4352926;32;20488;-92
2023/06/26 03:28:07;;;;;;;11.40;6.90;;;;;;;18.23;60.18;99612.63;4365120;32;20087;-92
2023/06/26 03:30:32;;;;;;;9.80;6.47;;;;;;;18.42;60.19;99599.91;4365122;32;20135;-92
2023/06/26 03:32:57;;;;;;;10.15;6.22;;;;;;;18.44;60.19;99601.59;4364918;32;20155;-88
2023/06/26 03:35:23;;;;;;;11.93;6.35;;;;;;;18.32;60.19;99605.91;4376795;32;20433;-87
2023/06/26 03:37:49;;;;;;;10.98;6.00;;;;;;;18.24;60.18;99605.56;4363948;32;20086;-88
2023/06/26 03:40:14;;;;;;;8.70;6.43;;;;;;;18.29;60.18;99595.56;4377176;32;20117;-88
2023/06/26 03:42:40;;;;;;;8.93;6.35;;;;;;;18.28;60.18;99597.34;4377601;32;20134;-88
2023/06/26 03:45:05;;;;;;;8.02;6.15;;;;;;;18.32;60.19;99598.00;4364995;32;20375;-88
2023/06/26 03:47:31;;;;;;;10.63;6.95;;;;;;;18.53;60.19;99601.84;4364721;32;20091;-88
2023/06/26 03:49:56;;;;;;;9.55;6.62;;;;;;;18.32;60.19;99598.00;4364724;32;20133;-89
2023/06/26 03:52:22;;;;;;;8.32;6.45;;;;;;;18.54;60.19;99602.69;4352216;32;20129;-91
2023/06/26 03:54:48;;;;;;;11.07;6.03;;;;;;;18.57;60.20;99608.59;4352367;32;20102;-90
2023/06/26 03:57:14;;;;;;;11.63;6.30;;;;;;;18.32;60.18;99604.13;4353551;32;20562;-90
2023/06/26 03:59:39;;;;;;;8.50;6.15;;;;;;;18.61;60.19;99612.69;4354773;32;20104;-91
2023/06/26 04:02:04;;;;;;;11.60;7.00;;;;;;;18.62;60.20;99606.50;4364192;32;20071;-91
2023/06/26 04:04:30;;;;;;;10.68;5.80;;;;;;;18.49;60.19;99604.78;4366504;32;20389;-91
2023/06/26 04:06:55;;;;;;;9.77;5.93;;;;;;;18.63;60.20;99608.19;4351996;32;20106;-91
2023/06/26 04:09:21;;;;;;;10.18;5.78;;;;;;;18.75;60.20;99608.34;4364656;32;20429;-90
2023/06/26 04:11:46;;;;;;;9.30;5.75;;;;;;;18.79;60.21;99609.81;4351535;32;20144;-91
2023/06/26 04:14:12;;;;;;;8.85;5.95;;;;;;;18.74;60.20;99610.13;4364129;32;20117;-92
2023/06/26 04:16:38;;;;;;;8.90;5.45;;;;;;;18.95;60.22;99613.09;4364418;32;20078;-94
2023/06/26 04:19:06;;;;;;;7.18;5.10;;;;;;;19.05;60.22;99613.31;4353025;32;20129;-95
2023/06/26 04:21:31;;;;;;;8.18;6.12;;;;;;;18.98;60.21;99604.97;4353049;32;20151;-94
2023/06/26 04:23:56;;;;;;;8.45;5.57;;;;;;;19.13;60.22;99608.31;4352995;32;20102;-93
2023/06/26 04:26:22;;;;;;;8.25;6.00;;;;;;;19.27;60.23;99609.06;4352544;32;20087;-93
2023/06/26 04:28:48;;;;;;;9.18;6.18;;;;;;;19.47;60.25;99612.94;4352421;32;20488;-89
2023/06/26 04:31:13;;;;;;;8.85;6.22;;;;;;;19.39;60.24;99615.25;4376606;32;20519;-91
2023/06/26 04:33:38;;;;;;;8.82;6.22;;;;;;;19.56;60.25;99611.47;4351570;32;20156;-91
2023/06/26 04:36:04;;;;;;;12.25;6.25;;;;;;;19.84;60.26;99605.88;4364264;32;20104;-92
2023/06/26 04:38:33;;;;;;;10.43;5.68;;;;;;;19.81;60.26;99602.63;4351607;32;20517;-92
2023/06/26 04:40:59;;;;;;;11.02;5.82;;;;;;;19.85;60.26;99604.09;4351707;32;20164;-91
2023/06/26 04:43:24;;;;;;;7.53;5.65;;;;;;;20.01;60.26;99611.75;4351771;32;20103;-92
2023/06/26 04:45:50;;;;;;;9.60;6.22;;;;;;;19.92;60.26;99608.00;4363944;32;20520;-91
2023/06/26 04:48:15;;;;;;;11.18;6.65;;;;;;;20.02;60.27;99608.16;4351919;32;20120;-90
2023/06/26 04:50:41;;;;;;;9.15;6.53;;;;;;;20.21;60.28;99611.97;4366035;32;20112;-92
2023/06/26 04:53:06;;;;;;;13.95;6.43;;;;;;;20.30;60.28;99610.44;4354535;32;20106;-92
2023/06/26 04:55:32;;;;;;;9.32;6.57;;;;;;;20.44;60.29;99599.72;4353376;32;20147;-92
2023/06/26 04:57:57;;;;;;;10.60;6.20;;;;;;;20.54;60.29;99605.16;4353397;32;20421;-93
2023/06/26 05:00:24;;;;;;;9.95;5.90;;;;;;;20.76;60.31;99609.66;4353347;32;20181;-91
2023/06/26 05:02:58;;;;;;;10.32;6.40;;;;;;;20.86;60.32;99604.53;4353585;32;20373;-91
2023/06/26 05:05:24;;;;;;;10.45;6.45;;;;;;;21.07;60.32;99605.53;4354185;32;20470;-90
2023/06/26 05:07:49;;;;;;;10.32;6.43;;;;;;;21.31;60.33;99602.78;4365968;32;20198;-90
2023/06/26 05:10:17;;;;;;;10.27;6.50;;;;;;;21.55;60.34;99600.00;4365495;32;20132;-89
2023/06/26 05:12:42;;;;;;;12.00;6.55;;;;;;;21.60;60.35;99600.47;4353570;32;20127;-91
2023/06/26 05:15:08;;;;;;;9.55;7.07;;;;;;;21.84;60.36;99602.97;4353199;32;27287;-94
2023/06/26 05:17:33;;;;;;;11.50;6.93;;;;;;;21.91;60.37;99604.13;4354217;32;20154;-94
2023/06/26 05:19:59;;;;;;;10.35;6.03;;;;;;;22.17;60.37;99600.22;4353741;32;20170;-93
2023/06/26 05:22:24;;;;;;;9.52;6.78;;;;;;;22.09;60.38;99594.72;4365702;32;20403;-92
2023/06/26 05:24:49;;;;;;;9.57;6.32;;;;;;;22.21;60.38;99592.84;4353621;32;20164;-93
2023/06/26 05:27:21;;;;;;;9.80;7.05;;;;;;;22.25;60.38;99589.84;4354613;32;20166;-93
2023/06/26 05:29:47;;;;;;;11.52;7.03;;;;;;;22.33;60.39;99591.84;4376661;32;20094;-93
2023/06/26 05:32:13;;;;;;;9.05;5.72;;;;;;;22.49;60.41;99594.09;4354414;32;20165;-93
2023/06/26 05:34:38;;;;;;;10.40;6.12;;;;;;;22.67;60.41;99596.00;4353438;32;20775;-93
2023/06/26 05:37:04;;;;;;;9.52;5.70;;;;;;;22.81;60.43;99596.66;4365937;32;20145;-93
2023/06/26 05:39:30;;;;;;;7.65;5.65;;;;;;;23.07;60.43;99600.59;4353514;32;20715;-92
2023/06/26 05:41:56;;;;;;;8.98;6.75;;;;;;;23.07;60.43;99599.78;4353551;32;20511;-93
2023/06/26 05:44:21;;;;;;;8.57;6.03;;;;;;;23.19;60.43;99593.41;4353629;32;20827;-93
2023/06/26 05:46:47;;;;;;;11.25;7.05;;;;;;;23.25;60.44;99599.03;4353380;32;20102;-93
2023/06/26 05:49:12;;;;;;;12.37;6.00;;;;;;;23.32;60.43;99594.00;4353514;32;20464;-93
2023/06/26 05:51:38;;;;;;;9.52;6.10;;;;;;;23.36;60.45;99599.88;4365650;32;20136;-93
2023/06/26 05:54:03;;;;;;;10.02;6.15;;;;;;;23.50;60.44;99603.03;4353311;32;20086;-94
2023/06/26 05:56:29;;;;;;;9.32;5.93;;;;;;;23.75;60.47;99596.41;4353652;32;20086;-94
2023/06/26 05:58:54;;;;;;;12.68;6.32;;;;;;;23.89;60.48;99593.34;4352955;32;20161;-93
2023/06/26 06:01:20;;;;;;;7.20;5.65;;;;;;;23.84;60.47;99595.59;4352086;32;20160;-93
2023/06/26 06:03:45;;;;;;;8.82;6.05;;;;;;;24.05;60.49;99595.47;4353233;32;20109;-93
2023/06/26 06:06:11;;;;;;;10.18;6.18;;;;;;;24.17;60.49;99589.06;4352983;32;20333;-90
2023/06/26 06:08:36;;;;;;;10.65;6.80;;;;;;;24.28;60.48;99588.09;4352863;32;20133;-90
2023/06/26 06:11:02;;;;;;;11.98;6.03;;;;;;;24.39;60.50;99582.66;4377727;32;20114;-91
2023/06/26 06:13:28;;;;;;;10.75;6.62;;;;;;;24.66;60.51;99587.25;4352990;32;20087;-92
2023/06/26 06:15:53;;;;;;;9.50;6.32;;;;;;;24.65;60.51;99588.22;4365719;32;20521;-92
2023/06/26 06:18:18;;;;;;;8.02;6.07;;;;;;;24.74;60.51;99592.69;4353189;32;20176;-92
2023/06/26 06:20:44;;;;;;;8.05;6.18;;;;;;;24.77;60.52;99591.56;4365115;32;20106;-91
2023/06/26 06:23:09;;;;;;;10.60;6.22;;;;;;;24.71;60.51;99586.81;4378040;32;20144;-91
2023/06/26 06:25:35;;;;;;;8.45;6.15;;;;;;;24.81;60.51;99587.59;4365454;32;20451;-91
2023/06/26 06:28:00;;;;;;;8.27;5.95;;;;;;;25.02;60.53;99592.78;4365316;32;20463;-91
2023/06/26 06:30:26;;;;;;;7.75;5.68;;;;;;;25.19;60.54;99592.03;4379185;32;20458;-91
2023/06/26 06:32:52;;;;;;;8.43;5.95;;;;;;;25.25;60.54;99593.25;4365540;32;20086;-91
2023/06/26 06:35:18;;;;;;;10.68;5.93;;;;;;;25.24;60.54;99592.41;4365577;32;20112;-92
2023/06/26 06:37:44;;;;;;;11.12;5.93;;;;;;;25.46;60.55;99593.03;4353205;32;20181;-92
2023/06/26 06:40:10;;;;;;;7.05;5.40;;;;;;;25.57;60.56;99596.34;4365516;32;20738;-92
2023/06/26 06:42:35;;;;;;;7.87;5.03;;;;;;;25.82;60.57;99586.84;4365375;32;20082;-92
2023/06/26 06:45:02;;;;;;;8.10;5.57;;;;;;;26.04;60.58;99590.91;4365496;32;20099;-91
2023/06/26 06:47:28;;;;;;;9.20;5.90;;;;;;;26.19;60.59;99591.19;4353251;32;20369;-92
2023/06/26 06:49:53;;;;;;;10.88;5.97;;;;;;;26.22;60.58;99586.38;4365664;32;20153;-92
2023/06/26 06:52:19;;;;;;;9.27;5.55;;;;;;;26.33;60.60;99588.00;4366356;32;20125;-91
2023/06/26 06:55:08;;;;;;;7.85;6.07;;;;;;;26.50;60.61;99591.66;4369193;32;20154;-90
2023/06/26 06:57:35;;;;;;;12.33;5.97;;;;;;;26.79;60.61;99583.38;4372350;32;20699;-90
2023/06/26 07:00:08;;;;;;;9.27;5.80;;;;;;;26.89;60.63;99579.59;4353181;32;20868;-90
2023/06/26 07:02:34;;;;;;;8.65;5.78;;;;;;;27.15;60.64;99584.09;4353047;32;20407;-88
2023/06/26 07:04:59;;;;;;;8.57;5.45;;;;;;;27.08;60.63;99583.91;4353713;32;20139;-90
2023/06/26 07:07:27;;;;;;;11.75;6.35;;;;;;;27.25;60.65;99584.00;4377752;32;20381;-90
2023/06/26 07:09:53;;;;;;;8.40;5.20;;;;;;;27.45;60.66;99580.94;4352898;32;20129;-91
2023/06/26 07:12:18;;;;;;;9.20;5.53;;;;;;;27.34;60.65;99578.53;4351525;32;20095;-91
2023/06/26 07:14:44;;;;;;;9.18;5.65;;;;;;;27.54;60.66;99576.44;4365148;32;20238;-92
2023/06/26 07:17:09;;;;;;;8.02;5.35;;;;;;;27.56;60.66;99579.78;4352579;32;20160;-90
2023/06/26 07:19:34;;;;;;;10.75;7.15;;;;;;;27.65;60.66;99576.16;4365103;32;20156;-92
2023/06/26 07:22:00;;;;;;;7.80;4.93;;;;;;;27.91;60.67;99577.88;4365114;32;20130;-91
2023/06/26 07:24:25;;;;;;;9.00;5.72;;;;;;;28.01;60.69;99570.56;4364974;32;20114;-91
2023/06/26 07:26:51;;;;;;;7.32;5.22;;;;;;;28.21;60.71;99577.28;4377240;32;20103;-91
2023/06/26 07:29:16;;;;;;;8.25;5.70;;;;;;;28.40;60.70;99568.13;4364844;32;20102;-90
2023/06/26 07:31:42;;;;;;;6.93;5.00;;;;;;;28.22;60.69;99570.09;4364672;32;20143;-90
2023/06/26 07:34:07;;;;;;;13.07;5.60;;;;;;;28.39;60.71;99572.66;4364982;32;20110;-91
2023/06/26 07:36:34;;;;;;;9.75;4.93;;;;;;;28.69;60.72;99567.59;4352511;32;20154;-91
2023/06/26 07:38:59;;;;;;;7.18;5.22;;;;;;;28.81;60.73;99568.91;4364554;32;20162;-92
2023/06/26 07:41:25;;;;;;;7.50;5.32;;;;;;;28.99;60.74;99572.25;4352438;32;20169;-91
2023/06/26 07:43:50;;;;;;;11.68;5.80;;;;;;;28.89;60.73;99571.63;4376352;32;20135;-89
2023/06/26 07:46:16;;;;;;;8.07;5.37;;;;;;;28.87;60.74;99568.28;4364428;32;20111;-92
2023/06/26 07:48:41;;;;;;;9.48;6.00;;;;;;;29.17;60.74;99571.19;4351829;32;21868;-92
2023/06/26 07:51:06;;;;;;;7.65;5.40;;;;;;;29.40;60.75;99574.81;4364695;32;20099;-91
2023/06/26 07:53:32;;;;;;;10.23;6.43;;;;;;;29.45;60.76;99575.13;4364158;32;23325;-89
2023/06/26 07:55:57;;;;;;;7.35;5.15;;;;;;;29.52;60.76;99581.47;4351306;32;27001;-91
2023/06/26 07:58:23;;;;;;;9.45;5.40;;;;;;;29.83;60.79;99577.97;4352099;32;20374;-92
2023/06/26 08:00:49;;;;;;;9.55;6.03;;;;;;;30.22;60.80;99567.16;4352107;32;20680;-92
2023/06/26 08:03:14;;;;;;;6.82;5.30;;;;;;;30.30;60.81;99568.94;4351981;32;24733;-92
2023/06/26 08:05:39;;;;;;;6.85;5.37;;;;;;;30.35;60.81;99563.88;4352080;32;20478;-93
2023/06/26 08:08:06;;;;;;;13.38;6.47;;;;;;;30.42;60.81;99564.81;4352293;32;27503;-93
2023/06/26 08:10:31;;;;;;;8.60;6.00;;;;;;;30.41;60.81;99561.28;4353142;32;20112;-93
2023/06/26 08:12:58;;;;;;;8.45;5.82;;;;;;;30.52;60.81;99565.38;4356524;32;27074;-94
2023/06/26 08:15:23;;;;;;;10.05;5.57;;;;;;;30.49;60.81;99566.56;4365992;32;20470;-94
2023/06/26 08:17:50;;;;;;;7.72;5.30;;;;;;;30.69;60.82;99566.09;4354092;32;20129;-95
2023/06/26 08:20:15;;;;;;;7.60;5.55;;;;;;;31.03;60.84;99569.13;4355545;32;20110;-95
2023/06/26 08:22:41;;;;;;;8.48;5.53;;;;;;;31.04;60.84;99568.09;4359860;32;20090;-95
2023/06/26 08:25:07;;;;;;;7.43;5.53;;;;;;;31.23;60.85;99568.56;4364936;32;20325;-96
2023/06/26 08:27:34;;;;;;;7.57;5.32;;;;;;;31.36;60.86;99569.59;4358561;32;20157;-96
2023/06/26 08:30:04;;;;;;;7.75;5.78;;;;;;;31.40;60.87;99572.72;4389906;32;20086;-96
2023/06/26 08:32:31;;;;;;;7.18;5.45;;;;;;;31.51;60.87;99572.25;4387927;32;20055;-96
2023/06/26 08:34:59;;;;;;;7.95;5.45;;;;;;;31.59;60.87;99569.47;4358699;32;20079;-96
2023/06/26 08:37:25;;;;;;;7.62;5.20;;;;;;;31.43;60.86;99569.66;4359325;32;20075;-96
2023/06/26 08:39:50;;;;;;;8.60;5.35;;;;;;;31.24;60.86;99571.09;4355906;32;20157;-96
2023/06/26 08:42:16;;;;;;;10.68;5.87;;;;;;;31.11;60.85;99565.50;4355866;32;20521;-96
2023/06/26 08:44:43;;;;;;;7.50;5.03;;;;;;;30.59;60.82;99569.03;4368685;32;20133;-96
2023/06/26 08:47:20;;;;;;;8.15;5.80;;;;;;;30.45;60.82;99575.19;4368609;32;20110;-96
2023/06/26 08:50:07;;;;;;;7.32;5.57;;;;;;;30.38;60.82;99575.09;4367868;32;20091;-95
2023/06/26 08:52:37;;;;;;;7.30;5.55;;;;;;;30.17;60.80;99567.69;4366011;32;20099;-96
2023/06/26 08:55:05;;;;;;;8.23;5.85;;;;;;;29.98;60.80;99575.34;4358411;32;20119;-96
2023/06/26 08:57:40;;;;;;;8.90;5.55;;;;;;;29.82;60.80;99581.66;4358989;32;20115;-96
2023/06/26 09:00:08;;;;;;;7.90;5.62;;;;;;;29.63;60.78;99574.87;4356058;32;20095;-96
2023/06/26 09:02:35;;;;;;;8.07;5.70;;;;;;;29.73;60.79;99574.66;4354605;32;20263;-95
2023/06/26 09:05:02;;;;;;;9.88;5.70;;;;;;;29.84;60.79;99568.91;4356521;32;20091;-96
2023/06/26 09:07:35;;;;;;;7.80;5.50;;;;;;;30.12;60.81;99569.25;4365865;32;20075;-96
2023/06/26 09:10:15;;;;;;;7.53;5.90;;;;;;;30.49;60.82;99571.94;4375866;32;20051;-96
2023/06/26 09:17:51;;;;;;;8.35;5.25;;;;;;;30.87;60.85;99561.22;4462553;27;20059;-96
2023/06/26 09:20:16;;;;;;;9.57;6.18;;;;;;;30.87;60.84;99561.22;4362194;32;20156;-96
2023/06/26 09:22:47;;;;;;;7.97;5.95;;;;;;;31.03;60.85;99568.28;4364168;32;20082;-96
2023/06/26 09:25:15;;;;;;;10.13;5.45;;;;;;;30.83;60.84;99571.50;4386203;32;20101;-96
2023/06/26 09:27:47;;;;;;;10.82;5.62;;;;;;;30.54;60.83;99566.91;4360327;32;20148;-96
2023/06/26 09:30:13;;;;;;;6.82;5.05;;;;;;;30.39;60.82;99565.19;4373308;32;20062;-95
2023/06/26 09:32:38;;;;;;;7.12;4.70;;;;;;;30.41;60.82;99569.34;4359683;32;20090;-96
2023/06/26 09:35:04;;;;;;;8.60;5.55;;;;;;;30.56;60.82;99566.72;4359492;32;20146;-96
2023/06/26 09:37:29;;;;;;;7.68;5.40;;;;;;;30.85;60.84;99564.09;4357344;32;20148;-96
2023/06/26 09:39:55;;;;;;;6.87;5.55;;;;;;;31.15;60.85;99564.09;4357467;32;20360;-95
2023/06/26 09:42:21;;;;;;;10.27;6.00;;;;;;;31.28;60.86;99558.94;4356894;32;20131;-94
2023/06/26 09:44:47;;;;;;;7.55;5.45;;;;;;;31.52;60.87;99556.97;4356818;32;20102;-96
2023/06/26 09:47:12;;;;;;;7.43;5.35;;;;;;;31.63;60.89;99559.97;4346047;32;20172;-93
2023/06/26 09:49:42;;;;;;;13.52;6.70;;;;;;;31.74;60.89;99554.16;4367544;32;20110;-93
2023/06/26 09:52:09;;;;;;;;;;;;;;;31.66;60.88;99556.06;4376521;32;20082;-95
2023/06/26 09:54:35;;;;;;;7.57;5.90;;;;;;;31.64;60.88;99558.94;4380189;32;19990;-95
2023/06/26 09:57:16;;;;;;;6.50;5.80;;;;;;;31.54;60.87;99555.75;4354463;32;20176;-93
2023/06/26 09:59:42;;;;;;;6.35;4.93;;;;;;;31.38;60.86;99551.41;4354658;32;20181;-95
2023/06/26 10:02:07;;;;;;;7.72;5.30;;;;;;;31.77;60.88;99552.09;4366587;32;20138;-95
2023/06/26 10:04:33;;;;;;;6.82;5.00;;;;;;;31.40;60.87;99549.34;4353966;32;20141;-94
2023/06/26 10:07:01;;;;;;;5.68;4.78;;;;;;;31.26;60.86;99552.91;4366211;32;20102;-92
2023/06/26 10:09:26;;;;;;;6.65;4.87;;;;;;;31.49;60.88;99550.09;4366482;32;20102;-92
2023/06/26 10:12:02;;;;;;;6.20;4.82;;;;;;;31.36;60.86;99548.06;4353343;32;20098;-92
2023/06/26 10:14:28;;;;;;;7.93;4.90;;;;;;;31.29;60.86;99551.72;4354267;32;20471;-93
2023/06/26 10:16:57;;;;;;;6.82;4.43;;;;;;;31.66;60.88;99540.75;4370868;32;20121;-93
2023/06/26 10:19:25;;;;;;;9.20;5.65;;;;;;;31.55;60.87;99535.06;4379041;32;20094;-94
2023/06/26 10:21:54;;;;;;;5.85;4.75;;;;;;;31.71;60.89;99542.91;4366689;32;20499;-92
2023/06/26 10:24:19;;;;;;;9.18;5.07;;;;;;;32.03;60.90;99534.34;4366182;32;20098;-93
2023/06/26 10:26:46;;;;;;;7.07;5.03;;;;;;;32.19;60.90;99533.28;4366309;32;20145;-94
2023/06/26 10:29:11;;;;;;;5.60;4.60;;;;;;;32.31;60.91;99525.50;4366137;32;20131;-92
2023/06/26 10:31:37;;;;;;;7.85;4.82;;;;;;;32.34;60.91;99534.03;4366657;32;20142;-92
2023/06/26 10:34:02;;;;;;;5.53;4.62;;;;;;;32.25;60.90;99537.88;4366019;32;20110;-92
2023/06/26 10:36:30;;;;;;;5.68;4.37;;;;;;;31.96;60.90;99538.84;4365027;32;27068;-94
2023/06/26 10:38:57;;;;;;;6.03;4.78;;;;;;;32.25;60.91;99528.97;4366547;32;20106;-95
2023/06/26 10:41:23;;;;;;;6.45;4.90;;;;;;;32.44;60.92;99524.81;4366148;32;20125;-96
2023/06/26 10:43:51;;;;;;;6.72;4.22;;;;;;;32.46;60.92;99533.53;4365967;32;20130;-95
2023/06/26 10:46:18;;;;;;;4.80;3.85;;;;;;;32.27;60.92;99530.47;4365333;32;20102;-92
2023/06/26 10:48:59;;;;;;;4.80;4.15;;;;;;;32.27;60.92;99524.25;4365336;32;20459;-92
2023/06/26 10:51:26;;;;;;;6.30;4.87;;;;;;;32.42;60.91;99525.00;4365707;32;20112;-94
2023/06/26 10:53:58;;;;;;;5.45;4.32;;;;;;;32.50;60.92;99532.09;4365537;32;20468;-92
2023/06/26 10:56:43;;;;;;;9.05;4.70;;;;;;;32.31;60.92;99531.75;4365703;32;20138;-94
2023/06/26 10:59:27;;;;;;;7.62;4.75;;;;;;;32.04;60.91;99527.94;4377933;32;20098;-95
2023/06/26 11:02:00;;;;;;;5.30;4.40;;;;;;;32.08;60.90;99532.94;4365749;32;20134;-93
2023/06/26 11:04:43;;;;;;;5.57;4.28;;;;;;;32.21;60.92;99530.38;4366001;32;20137;-95
2023/06/26 11:07:23;;;;;;;7.62;4.60;;;;;;;31.98;60.90;99536.81;4378293;32;20157;-95
2023/06/26 11:09:54;;;;;;;7.47;4.70;;;;;;;31.76;60.89;99532.44;4366095;32;20098;-96
2023/06/26 11:12:47;;;;;;;7.57;4.50;;;;;;;31.86;60.90;99538.31;4379111;32;20107;-95
2023/06/26 11:15:16;;;;;;;6.93;4.30;;;;;;;31.81;60.90;99527.31;4367895;32;20165;-91
2023/06/26 11:17:42;;;;;;;8.50;5.00;;;;;;;31.66;60.88;99534.53;4367035;32;20115;-92
2023/06/26 11:20:09;;;;;;;5.70;4.12;;;;;;;31.63;60.89;99526.84;4375242;32;20093;-93
2023/06/26 11:22:36;;;;;;;4.95;4.18;;;;;;;31.64;60.89;99533.91;4366091;32;20111;-93
2023/06/26 11:25:03;;;;;;;5.60;4.18;;;;;;;31.73;60.89;99527.44;4365259;32;20137;-93
2023/06/26 11:27:46;;;;;;;4.43;3.85;;;;;;;31.62;60.88;99530.56;4365449;32;20169;-94
2023/06/26 11:30:23;;;;;;;6.22;3.90;;;;;;;31.67;60.88;99523.59;4364938;32;28625;-95
2023/06/26 11:32:49;;;;;;;4.82;3.90;;;;;;;31.67;60.88;99528.97;4367435;32;20153;-93
2023/06/26 11:35:23;;;;;;;7.78;4.32;;;;;;;31.78;60.88;99519.59;4365388;32;20118;-91